createdAt,value
2022-12-01T00:01:06.925Z,0.71
2022-12-01T00:03:34.135Z,0.46
2022-12-01T00:06:05.937Z,0.49
2022-12-01T00:08:33.659Z,0.45
2022-12-01T00:11:04.833Z,0.62
2022-12-01T00:13:32.048Z,0.63
2022-12-01T00:15:59.129Z,0.73
2022-12-01T00:18:25.917Z,0.62
2022-12-01T00:20:56.209Z,0.60
2022-12-01T00:23:23.700Z,0.81
2022-12-01T00:25:50.476Z,0.64
2022-12-01T00:28:17.269Z,0.57
2022-12-01T00:30:44.135Z,0.68
2022-12-01T00:33:12.738Z,0.59
2022-12-01T00:35:39.564Z,0.56
2022-12-01T00:38:06.373Z,0.34
2022-12-01T00:40:33.194Z,0.27
2022-12-01T00:43:00.012Z,0.44
2022-12-01T00:45:27.046Z,0.42
2022-12-01T00:47:57.524Z,0.54
2022-12-01T00:50:24.293Z,0.35
2022-12-01T00:52:51.107Z,0.32
2022-12-01T00:55:17.886Z,0.26
2022-12-01T00:57:44.866Z,0.36
2022-12-01T01:00:12.383Z,0.34
2022-12-01T01:02:40.230Z,0.45
2022-12-01T01:05:07.388Z,0.46
2022-12-01T01:07:34.423Z,0.54
2022-12-01T01:10:01.288Z,0.52
2022-12-01T01:12:28.621Z,0.32
2022-12-01T01:14:55.441Z,0.35
2022-12-01T01:17:22.415Z,0.38
2022-12-01T01:19:49.420Z,0.45
2022-12-01T01:22:16.418Z,0.05
2022-12-01T01:24:43.219Z,0.20
2022-12-01T01:27:10.001Z,0.10
2022-12-01T01:29:37.094Z,0.01
2022-12-01T01:32:04.302Z,0.20
2022-12-01T01:34:34.156Z,0.27
2022-12-01T01:37:00.965Z,0.16
2022-12-01T01:39:27.850Z,0.19
2022-12-01T01:41:54.651Z,0.41
2022-12-01T01:44:56.180Z,0.42
2022-12-01T01:47:33.270Z,0.25
2022-12-01T01:50:06.341Z,0.40
2022-12-01T01:52:35.385Z,0.11
2022-12-01T01:55:04.943Z,0.35
2022-12-01T01:57:33.373Z,0.41
2022-12-01T02:00:20.697Z,0.19
2022-12-01T02:02:48.361Z,0.15
2022-12-01T02:05:19.989Z,0.26
2022-12-01T02:07:47.611Z,0.17
2022-12-01T02:10:15.481Z,0.11
2022-12-01T02:13:11.343Z,0.23
2022-12-01T02:15:43.728Z,0.16
2022-12-01T02:18:26.083Z,0.05
2022-12-01T02:21:19.857Z,0.14
2022-12-01T02:24:14.020Z,0.15
2022-12-01T02:26:53.449Z,0.33
2022-12-01T02:29:41.946Z,0.34
2022-12-01T02:32:16.999Z,0.27
2022-12-01T02:34:55.188Z,0.33
2022-12-01T02:37:28.852Z,0.31
2022-12-01T02:40:08.261Z,0.23
2022-12-01T02:42:49.774Z,0.22
2022-12-01T02:45:29.284Z,0.31
2022-12-01T02:47:59.749Z,0.28
2022-12-01T02:50:28.508Z,0.26
2022-12-01T02:52:55.548Z,0.27
2022-12-01T02:55:22.331Z,0.37
2022-12-01T02:57:49.115Z,0.31
2022-12-01T03:00:17.071Z,0.26
2022-12-01T03:03:17.809Z,0.37
2022-12-01T03:05:58.326Z,0.42
2022-12-01T03:08:51.392Z,0.33
2022-12-01T03:11:28.039Z,0.32
2022-12-01T03:14:09.306Z,0.31
2022-12-01T03:16:47.432Z,0.24
2022-12-01T03:19:28.081Z,0.37
2022-12-01T03:22:24.765Z,0.24
2022-12-01T03:24:53.649Z,0.09
2022-12-01T03:27:23.071Z,0.08
2022-12-01T03:29:51.780Z,-0.01
2022-12-01T03:32:22.115Z,0.16
2022-12-01T03:35:11.431Z,0.10
2022-12-01T03:37:43.473Z,0.21
2022-12-01T03:40:14.629Z,0.25
2022-12-01T03:42:45.625Z,0.22
2022-12-01T03:45:17.493Z,0.14
2022-12-01T03:47:44.570Z,-0.06
2022-12-01T03:50:13.984Z,0.16
2022-12-01T03:53:07.236Z,0.10
2022-12-01T03:55:38.936Z,0.07
2022-12-01T03:58:09.687Z,0.09
2022-12-01T04:00:37.510Z,0.18
2022-12-01T04:03:04.948Z,0.27
2022-12-01T04:05:33.974Z,0.14
2022-12-01T04:08:01.146Z,0.10
2022-12-01T04:10:27.978Z,0.26
2022-12-01T04:12:59.195Z,0.02
2022-12-01T04:15:26.566Z,-0.05
2022-12-01T04:17:53.725Z,0.11
2022-12-01T04:20:20.826Z,0.15
2022-12-01T04:22:47.961Z,0.06
2022-12-01T04:25:14.802Z,-0.01
2022-12-01T04:27:41.920Z,0.11
2022-12-01T04:30:09.230Z,0.23
2022-12-01T04:32:43.251Z,0.08
2022-12-01T04:35:16.406Z,-0.03
2022-12-01T04:37:43.403Z,-0.02
2022-12-01T04:40:10.753Z,0.06
2022-12-01T04:42:37.548Z,0.08
2022-12-01T04:45:04.438Z,0.26
2022-12-01T04:47:31.254Z,0.23
2022-12-01T04:49:58.044Z,0.06
2022-12-01T04:52:24.793Z,0.13
2022-12-01T04:54:51.575Z,0.14
2022-12-01T04:57:18.436Z,0.20
2022-12-01T04:59:45.221Z,0.11
2022-12-01T05:02:12.070Z,0.14
2022-12-01T05:04:41.416Z,0.19
2022-12-01T05:07:08.198Z,0.36
2022-12-01T05:09:34.974Z,0.28
2022-12-01T05:12:01.767Z,0.24
2022-12-01T05:14:28.553Z,0.15
2022-12-01T05:16:56.027Z,0.23
2022-12-01T05:19:41.466Z,0.01
2022-12-01T05:22:08.259Z,-0.05
2022-12-01T05:24:35.149Z,-0.04
2022-12-01T05:27:01.977Z,0.04
2022-12-01T05:29:28.743Z,0.12
2022-12-01T05:31:55.612Z,0.22
2022-12-01T05:34:22.461Z,0.23
2022-12-01T05:36:49.240Z,0.27
2022-12-01T05:39:16.019Z,0.24
2022-12-01T05:41:42.808Z,0.12
2022-12-01T05:44:09.650Z,0.06
2022-12-01T05:46:36.461Z,-0.04
2022-12-01T05:49:03.251Z,-0.13
2022-12-01T05:51:30.017Z,-0.04
2022-12-01T05:53:59.518Z,-0.07
2022-12-01T05:56:26.408Z,-0.03
2022-12-01T05:58:53.241Z,0.13
2022-12-01T06:01:20.046Z,0.09
2022-12-01T06:03:46.897Z,0.09
2022-12-01T06:06:13.727Z,0.20
2022-12-01T06:08:40.533Z,0.08
2022-12-01T06:11:07.321Z,-0.01
2022-12-01T06:13:34.131Z,0.06
2022-12-01T06:16:03.188Z,0.04
2022-12-01T06:18:34.807Z,-0.21
2022-12-01T06:21:01.884Z,-0.07
2022-12-01T06:23:30.534Z,-0.25
2022-12-01T06:25:58.283Z,-0.17
2022-12-01T06:28:25.110Z,-0.09
2022-12-01T06:30:51.953Z,-0.16
2022-12-01T06:33:18.816Z,-0.05
2022-12-01T06:35:45.994Z,-0.18
2022-12-01T06:38:12.801Z,-0.23
2022-12-01T06:40:39.565Z,-0.19
2022-12-01T06:43:06.930Z,-0.26
2022-12-01T06:45:33.914Z,-0.28
2022-12-01T06:48:00.811Z,-0.23
2022-12-01T06:50:27.658Z,-0.37
2022-12-01T06:52:54.876Z,-0.11
2022-12-01T06:55:21.853Z,-0.04
2022-12-01T06:57:49.002Z,-0.24
2022-12-01T07:00:16.649Z,-0.32
2022-12-01T07:02:43.944Z,-0.30
2022-12-01T07:05:11.047Z,-0.16
2022-12-01T07:07:39.256Z,-0.15
2022-12-01T07:10:07.276Z,-0.52
2022-12-01T07:12:34.139Z,-0.32
2022-12-01T07:15:01.817Z,-0.19
2022-12-01T07:17:29.710Z,-0.29
2022-12-01T07:19:56.855Z,-0.24
2022-12-01T07:22:28.109Z,-0.26
2022-12-01T07:24:57.791Z,-0.22
2022-12-01T07:27:24.581Z,-0.46
2022-12-01T07:29:51.589Z,-0.13
2022-12-01T07:32:18.545Z,-0.11
2022-12-01T07:34:45.332Z,-0.21
2022-12-01T07:37:12.112Z,-0.20
2022-12-01T07:39:38.934Z,-0.20
2022-12-01T07:42:05.759Z,-0.24
2022-12-01T07:44:32.602Z,-0.22
2022-12-01T07:46:59.464Z,-0.28
2022-12-01T07:49:26.248Z,-0.11
2022-12-01T07:51:53.041Z,-0.13
2022-12-01T07:54:21.357Z,-0.23
2022-12-01T07:56:48.295Z,-0.16
2022-12-01T07:59:15.107Z,-0.16
2022-12-01T08:01:44.636Z,-0.20
2022-12-01T08:04:12.103Z,-0.14
2022-12-01T08:06:38.950Z,-0.20
2022-12-01T08:09:06.031Z,-0.11
2022-12-01T08:11:32.804Z,-0.30
2022-12-01T08:13:59.580Z,-0.29
2022-12-01T08:16:26.534Z,-0.33
2022-12-01T08:18:53.904Z,-0.20
2022-12-01T08:21:22.156Z,-0.05
2022-12-01T08:23:52.753Z,-0.19
2022-12-01T08:26:20.742Z,-0.21
2022-12-01T08:28:47.791Z,-0.16
2022-12-01T08:31:30.431Z,-0.01
2022-12-01T08:33:57.909Z,-0.09
2022-12-01T08:36:25.494Z,-0.23
2022-12-01T08:38:54.252Z,-0.23
2022-12-01T08:41:21.721Z,-0.15
2022-12-01T08:44:03.739Z,-0.16
2022-12-01T08:46:35.097Z,-0.20
2022-12-01T08:49:03.618Z,-0.28
2022-12-01T08:51:30.685Z,-0.15
2022-12-01T08:53:59.508Z,-0.04
2022-12-01T08:56:32.825Z,0.02
2022-12-01T08:58:59.959Z,0.06
2022-12-01T09:01:27.182Z,0.03
2022-12-01T09:04:11.104Z,-0.08
2022-12-01T09:06:40.617Z,-0.11
2022-12-01T09:09:12.706Z,-0.06
2022-12-01T09:11:40.022Z,0.05
2022-12-01T09:14:06.913Z,0.03
2022-12-01T09:16:33.782Z,-0.09
2022-12-01T09:19:00.698Z,-0.06
2022-12-01T09:21:30.714Z,-0.01
2022-12-01T09:23:57.550Z,-0.15
2022-12-01T09:26:24.847Z,-0.13
2022-12-01T09:28:56.695Z,0.08
2022-12-01T09:31:23.617Z,0.04
2022-12-01T09:33:58.708Z,0.17
2022-12-01T09:36:25.680Z,0.12
2022-12-01T09:38:52.502Z,0.02
2022-12-01T09:41:23.066Z,0.10
2022-12-01T09:43:58.545Z,-0.11
2022-12-01T09:46:30.456Z,-0.11
2022-12-01T09:48:59.068Z,-0.06
2022-12-01T09:51:28.340Z,-0.06
2022-12-01T09:53:57.706Z,-0.23
2022-12-01T09:56:27.353Z,-0.13
2022-12-01T09:58:57.803Z,-0.08
2022-12-01T10:01:38.656Z,-0.19
2022-12-01T10:04:19.660Z,-0.14
2022-12-01T10:06:54.409Z,-0.12
2022-12-01T10:09:38.240Z,-0.02
2022-12-01T10:12:27.666Z,0.18
2022-12-01T10:15:02.013Z,0.12
2022-12-01T10:17:41.611Z,0.13
2022-12-01T10:20:23.843Z,0.21
2022-12-01T10:23:09.659Z,0.00
2022-12-01T10:26:14.447Z,0.06
2022-12-01T10:29:03.765Z,0.11
2022-12-01T10:31:49.959Z,-0.01
2022-12-01T10:34:18.057Z,-0.09
2022-12-01T10:36:44.890Z,0.20
2022-12-01T10:39:18.390Z,0.27
2022-12-01T10:41:46.017Z,0.35
2022-12-01T10:44:13.382Z,0.30
2022-12-01T10:46:52.849Z,0.43
2022-12-01T10:49:19.939Z,0.39
2022-12-01T10:51:55.217Z,0.34
2022-12-01T10:54:41.306Z,0.21
2022-12-01T10:57:15.436Z,0.24
2022-12-01T10:59:50.555Z,0.35
2022-12-01T11:02:21.102Z,0.22
2022-12-01T11:05:02.808Z,0.19
2022-12-01T11:07:43.784Z,0.22
2022-12-01T11:10:17.820Z,0.15
2022-12-01T11:12:47.191Z,0.09
2022-12-01T11:15:27.054Z,0.21
2022-12-01T11:18:05.248Z,0.49
2022-12-01T11:20:38.242Z,0.42
2022-12-01T11:23:29.950Z,0.52
2022-12-01T11:26:04.993Z,0.48
2022-12-01T11:28:33.307Z,0.54
2022-12-01T11:31:09.258Z,0.23
2022-12-01T11:33:45.328Z,0.27
2022-12-01T11:36:20.769Z,0.48
2022-12-01T11:38:47.877Z,0.54
2022-12-01T11:41:27.422Z,0.46
2022-12-01T11:44:01.502Z,0.48
2022-12-01T11:46:32.582Z,0.52
2022-12-01T11:49:00.049Z,0.52
2022-12-01T11:51:39.207Z,0.47
2022-12-01T11:57:25.358Z,0.32
2022-12-01T11:59:41.135Z,0.40
2022-12-01T12:02:14.388Z,0.41
2022-12-01T12:04:51.714Z,0.54
2022-12-01T12:07:30.229Z,0.34
2022-12-01T12:10:23.733Z,0.60
2022-12-01T12:13:02.563Z,0.38
2022-12-01T12:15:43.036Z,0.44
2022-12-01T12:18:15.856Z,0.38
2022-12-01T12:20:55.426Z,0.54
2022-12-01T12:23:45.531Z,0.42
2022-12-01T12:26:25.494Z,0.56
2022-12-01T12:29:28.931Z,0.55
2022-12-01T12:32:31.841Z,0.46
2022-12-01T12:35:43.496Z,0.41
2022-12-01T12:38:29.497Z,0.50
2022-12-01T12:41:17.996Z,0.34
2022-12-01T12:43:55.070Z,0.38
2022-12-01T12:46:27.188Z,0.29
2022-12-01T12:49:19.171Z,0.33
2022-12-01T12:51:55.859Z,0.33
2022-12-01T12:54:36.222Z,0.42
2022-12-01T12:57:07.064Z,0.10
2022-12-01T12:59:39.882Z,0.24
2022-12-01T13:02:14.022Z,0.33
2022-12-01T13:04:55.939Z,0.08
2022-12-01T13:07:32.154Z,0.29
2022-12-01T13:10:05.866Z,0.37
2022-12-01T13:12:35.891Z,0.43
2022-12-01T13:15:16.099Z,0.45
2022-12-01T13:17:52.641Z,0.46
2022-12-01T13:20:22.936Z,0.25
2022-12-01T13:22:50.239Z,0.31
2022-12-01T13:25:23.572Z,0.44
2022-12-01T13:27:51.153Z,0.46
2022-12-01T13:30:23.324Z,0.41
2022-12-01T13:32:58.519Z,0.36
2022-12-01T13:35:27.289Z,0.45
2022-12-01T13:38:13.906Z,0.55
2022-12-01T13:40:40.696Z,0.34
2022-12-01T13:43:19.184Z,0.55
2022-12-01T13:45:46.544Z,0.47
2022-12-01T13:48:45.754Z,0.50
2022-12-01T13:51:12.577Z,0.51
2022-12-01T13:53:55.153Z,0.42
2022-12-01T13:56:21.947Z,0.47
2022-12-01T13:58:51.086Z,0.38
2022-12-01T14:01:21.215Z,0.30
2022-12-01T14:04:03.662Z,0.47
2022-12-01T14:06:50.221Z,0.52
2022-12-01T14:09:32.137Z,0.37
2022-12-01T14:12:01.857Z,0.55
2022-12-01T14:14:35.150Z,0.34
2022-12-01T14:17:04.806Z,0.52
2022-12-01T14:19:39.528Z,0.53
2022-12-01T14:22:07.437Z,0.68
2022-12-01T14:24:37.305Z,0.51
2022-12-01T14:27:04.849Z,0.54
2022-12-01T14:29:34.562Z,0.30
2022-12-01T14:32:01.258Z,0.36
2022-12-01T14:34:32.238Z,0.27
2022-12-01T14:37:05.772Z,0.46
2022-12-01T14:39:38.749Z,0.34
2022-12-01T14:42:11.712Z,0.32
2022-12-01T14:44:47.874Z,0.22
2022-12-01T14:47:21.864Z,0.42
2022-12-01T14:50:07.375Z,0.30
2022-12-01T14:52:43.609Z,0.23
2022-12-01T14:55:23.554Z,0.12
2022-12-01T14:57:52.228Z,0.13
2022-12-01T15:00:22.091Z,0.04
2022-12-01T15:02:58.448Z,0.06
2022-12-01T15:05:27.588Z,0.35
2022-12-01T15:08:18.704Z,0.25
2022-12-01T15:10:56.239Z,0.11
2022-12-01T15:13:28.487Z,0.18
2022-12-01T15:15:58.408Z,0.19
2022-12-01T15:18:30.800Z,0.10
2022-12-01T15:21:09.402Z,0.26
2022-12-01T15:23:36.297Z,0.35
2022-12-01T15:26:03.911Z,0.33
2022-12-01T15:28:33.658Z,0.18
2022-12-01T15:31:03.961Z,0.34
2022-12-01T15:33:36.951Z,0.30
2022-12-01T15:36:04.786Z,0.21
2022-12-01T15:38:33.738Z,0.23
2022-12-01T15:44:08.740Z,0.24
2022-12-01T15:46:39.597Z,0.05
2022-12-01T15:49:29.424Z,0.09
2022-12-01T15:52:05.787Z,0.13
2022-12-01T15:54:32.746Z,0.24
2022-12-01T15:57:00.025Z,0.20
2022-12-01T15:59:35.229Z,0.21
2022-12-01T16:02:20.442Z,0.30
2022-12-01T16:04:48.919Z,0.21
2022-12-01T16:07:16.091Z,0.22
2022-12-01T16:09:56.187Z,0.26
2022-12-01T16:12:36.767Z,0.27
2022-12-01T16:15:14.237Z,0.10
2022-12-01T16:17:44.204Z,-0.02
2022-12-01T16:20:32.742Z,0.03
2022-12-01T16:23:05.426Z,0.12
2022-12-01T16:25:43.343Z,0.02
2022-12-01T16:28:25.719Z,0.05
2022-12-01T16:30:52.862Z,0.13
2022-12-01T16:33:22.871Z,0.06
2022-12-01T16:35:50.218Z,0.01
2022-12-01T16:38:22.684Z,0.19
2022-12-01T16:40:53.526Z,0.12
2022-12-01T16:43:22.347Z,0.17
2022-12-01T16:45:53.985Z,0.13
2022-12-01T16:48:20.884Z,0.19
2022-12-01T16:50:48.696Z,0.14
2022-12-01T16:53:15.651Z,0.07
2022-12-01T16:55:52.367Z,0.13
2022-12-01T16:58:19.282Z,0.20
2022-12-01T17:00:52.348Z,0.09
2022-12-01T17:03:21.000Z,0.12
2022-12-01T17:05:54.752Z,-0.04
2022-12-01T17:08:23.815Z,0.03
2022-12-01T17:10:51.442Z,0.03
2022-12-01T17:13:19.933Z,0.10
2022-12-01T17:15:48.719Z,0.13
2022-12-01T17:18:16.934Z,0.09
2022-12-01T17:20:44.036Z,0.14
2022-12-01T17:23:11.155Z,0.08
2022-12-01T17:25:48.271Z,-0.03
2022-12-01T17:28:21.870Z,0.06
2022-12-01T17:30:49.427Z,0.04
2022-12-01T17:33:16.336Z,0.05
2022-12-01T17:35:43.169Z,0.03
2022-12-01T17:38:10.044Z,-0.02
2022-12-01T17:40:39.341Z,-0.08
2022-12-01T17:43:08.313Z,-0.02
2022-12-01T17:45:35.114Z,0.13
2022-12-01T17:48:01.978Z,0.11
2022-12-01T17:50:28.819Z,0.15
2022-12-01T17:52:55.624Z,0.24
2022-12-01T17:55:22.454Z,0.06
2022-12-01T17:57:49.303Z,0.09
2022-12-01T18:00:16.586Z,0.10
2022-12-01T18:02:43.421Z,0.06
2022-12-01T18:05:11.205Z,-0.01
2022-12-01T18:07:38.224Z,-0.16
2022-12-01T18:10:05.449Z,-0.06
2022-12-01T18:12:32.286Z,-0.01
2022-12-01T18:14:59.154Z,-0.02
2022-12-01T18:17:26.473Z,0.04
2022-12-01T18:19:53.281Z,0.08
2022-12-01T18:22:20.129Z,-0.06
2022-12-01T18:24:46.927Z,-0.03
2022-12-01T18:27:13.718Z,0.07
2022-12-01T18:29:40.573Z,-0.07
2022-12-01T18:32:07.354Z,-0.08
2022-12-01T18:34:34.205Z,0.04
2022-12-01T18:37:02.561Z,-0.04
2022-12-01T18:39:29.374Z,-0.04
2022-12-01T18:41:56.472Z,-0.11
2022-12-01T18:44:23.335Z,-0.14
2022-12-01T18:46:50.270Z,0.01
2022-12-01T18:49:18.072Z,0.05
2022-12-01T18:51:45.076Z,0.08
2022-12-01T18:54:13.596Z,-0.01
2022-12-01T18:56:40.633Z,0.15
2022-12-01T18:59:09.698Z,0.16
2022-12-01T19:01:39.963Z,0.09
2022-12-01T19:04:08.108Z,0.10
2022-12-01T19:06:36.222Z,0.05
2022-12-01T19:09:04.805Z,-0.23
2022-12-01T19:11:33.139Z,-0.28
2022-12-01T19:14:00.087Z,-0.35
2022-12-01T19:16:27.402Z,-0.18
2022-12-01T19:18:54.284Z,-0.13
2022-12-01T19:21:21.202Z,-0.10
2022-12-01T19:23:48.295Z,-0.07
2022-12-01T19:26:17.484Z,-0.09
2022-12-01T19:28:45.831Z,-0.13
2022-12-01T19:31:15.398Z,-0.02
2022-12-01T19:33:42.512Z,-0.10
2022-12-01T19:36:11.801Z,-0.10
2022-12-01T19:38:39.365Z,-0.13
2022-12-01T19:41:06.809Z,-0.02
2022-12-01T19:43:34.381Z,-0.05
2022-12-01T19:46:09.523Z,0.00
2022-12-01T19:48:36.980Z,-0.01
2022-12-01T19:51:03.938Z,-0.08
2022-12-01T19:53:33.905Z,-0.07
2022-12-01T19:56:02.297Z,-0.01
2022-12-01T19:58:29.506Z,0.03
2022-12-01T20:01:03.231Z,-0.09
2022-12-01T20:03:30.273Z,-0.13
2022-12-01T20:06:06.115Z,-0.09
2022-12-01T20:08:35.890Z,0.03
2022-12-01T20:11:05.626Z,-0.03
2022-12-01T20:13:36.323Z,0.08
2022-12-01T20:16:08.409Z,-0.01
2022-12-01T20:18:36.097Z,0.11
2022-12-01T20:21:17.534Z,0.08
2022-12-01T20:23:47.587Z,0.12
2022-12-01T20:26:16.086Z,0.06
2022-12-01T20:28:48.821Z,0.02
2022-12-01T20:31:19.353Z,-0.03
2022-12-01T20:33:46.713Z,-0.03
2022-12-01T20:36:14.558Z,0.11
2022-12-01T20:38:41.387Z,0.13
2022-12-01T20:41:08.243Z,0.17
2022-12-01T20:43:35.244Z,0.26
2022-12-01T20:46:03.006Z,0.17
2022-12-01T20:48:30.338Z,0.12
2022-12-01T20:51:00.017Z,0.25
2022-12-01T20:53:26.909Z,0.23
2022-12-01T20:55:54.333Z,0.21
2022-12-01T20:58:21.382Z,0.39
2022-12-01T21:00:48.777Z,0.23
2022-12-01T21:03:15.691Z,0.26
2022-12-01T21:05:43.677Z,0.25
2022-12-01T21:08:12.483Z,0.25
2022-12-01T21:10:41.351Z,0.23
2022-12-01T21:13:37.439Z,0.22
2022-12-01T21:16:12.426Z,0.29
2022-12-01T21:18:55.415Z,0.27
2022-12-01T21:21:30.298Z,0.21
2022-12-01T21:24:08.574Z,0.22
2022-12-01T21:26:37.184Z,0.24
2022-12-01T21:29:16.918Z,0.23
2022-12-01T21:31:44.545Z,0.17
2022-12-01T21:34:16.709Z,0.31
2022-12-01T21:36:43.641Z,0.41
2022-12-01T21:39:14.746Z,0.48
2022-12-01T21:41:42.006Z,0.38
2022-12-01T21:44:15.124Z,0.47
2022-12-01T21:46:42.540Z,0.44
2022-12-01T21:49:21.222Z,0.32
2022-12-01T21:51:50.874Z,0.32
2022-12-01T21:54:20.659Z,0.38
2022-12-01T21:56:48.887Z,0.35
2022-12-01T21:59:22.162Z,0.30
2022-12-01T22:01:56.861Z,0.34
2022-12-01T22:04:26.111Z,0.27
2022-12-01T22:06:55.838Z,0.42
2022-12-01T22:09:25.498Z,0.47
2022-12-01T22:12:28.570Z,0.30
2022-12-01T22:15:00.622Z,0.30
2022-12-01T22:17:28.363Z,0.37
2022-12-01T22:20:01.245Z,0.45
2022-12-01T22:22:29.301Z,0.50
2022-12-01T22:25:20.067Z,0.55
2022-12-01T22:27:46.837Z,0.43
2022-12-01T22:30:19.414Z,0.56
2022-12-01T22:32:53.696Z,0.46
2022-12-01T22:35:21.703Z,0.51
2022-12-01T22:37:53.627Z,0.45
2022-12-01T22:40:34.090Z,0.55
2022-12-01T22:43:18.327Z,0.47
2022-12-01T22:45:47.399Z,0.39
2022-12-01T22:48:39.406Z,0.34
2022-12-01T22:51:20.216Z,0.49
2022-12-01T22:53:47.274Z,0.35
2022-12-01T22:56:40.921Z,0.38
2022-12-01T22:59:22.953Z,0.23
2022-12-01T23:02:02.339Z,0.38
2022-12-01T23:04:34.358Z,0.35
2022-12-01T23:07:29.323Z,0.36
2022-12-01T23:09:57.917Z,0.44
2022-12-01T23:12:29.449Z,0.40
2022-12-01T23:15:11.591Z,0.23
2022-12-01T23:17:40.677Z,0.32
2022-12-01T23:20:24.946Z,0.24
2022-12-01T23:22:57.364Z,0.24
2022-12-01T23:25:24.892Z,0.30
2022-12-01T23:27:53.801Z,0.32
2022-12-01T23:30:22.131Z,0.46
2022-12-01T23:32:58.210Z,0.46
2022-12-01T23:35:25.948Z,0.60
2022-12-01T23:37:53.054Z,0.53
2022-12-01T23:40:39.950Z,0.60
2022-12-01T23:43:32.095Z,0.62
2022-12-01T23:46:06.038Z,0.47
2022-12-01T23:48:36.565Z,0.57
2022-12-01T23:51:04.539Z,0.54
2022-12-01T23:53:33.241Z,0.44
2022-12-01T23:56:04.898Z,0.40
2022-12-01T23:58:31.791Z,0.41
